Terminal Aerodrome Forecast
Issued by NWS

Home | Current Version | Previous Version | Graphics & Text | Print | Product List | Glossary On
Versions: 1 2 3 4 5 6 7 8 9 10 11 12 13 14 15 16 17 18 19 20 21 22 23 24 25 26 27 28 29 30 31 32 33 34 35 36 37 38 39 40 41 42 43 44 45 46 47 48 49 50
000
FTUS43 KLOT 031452 AAA
TAFGYY
TAF AMD
KGYY 031452Z 0315/0412 30008KT P6SM FEW060
     FM032000 25012G18KT P6SM SCT060
     FM040300 23011KT P6SM VCSH SCT040 BKN060
      TEMPO 0407/0410 4SM SHRA BKN040
     FM041000 35014G21KT P6SM BKN012=

USA.gov is the U.S. government's official web portal to all federal, state and local government web resources and services.